This is the latest recevied weather packets stored in our database for station/object EA6MW-10. If no packets are shown the sender has not sent any weather packets the latest 10 day(s).
| Time | Temp. | Humidity | Pressure | Rain* | Wind** | Luminosity | Snow |
|---|---|---|---|---|---|---|---|
| 1777455478 | 28.33° C | 44% | 1011.8 hPa | - | - | - | - |
| 1777454577 | 30.56° C | 40% | 1011.8 hPa | - | - | - | - |
| 1777453677 | 28.89° C | 40% | 1012 hPa | - | - | - | - |
| 1777452776 | 29.44° C | 40% | 1011.7 hPa | - | - | - | - |
| 1777451876 | 28.33° C | 39% | 1011.4 hPa | - | - | - | - |
| 1777450976 | 30.56° C | 38% | 1011.3 hPa | - | - | - | - |
| 1777450076 | 31.67° C | 38% | 1011.2 hPa | - | - | - | - |
| 1777449179 | 30° C | 40% | 1011.3 hPa | - | - | - | - |
| 1777448065 | 27.22° C | 48% | 1011.3 hPa | - | - | - | - |
| 1777447161 | 25.56° C | 52% | 1011.4 hPa | - | - | - | - |
| 1777446261 | 22.78° C | 59% | 1011.5 hPa | - | - | - | - |
| 1777445493 | 21.67° C | 61% | 1011.2 hPa | - | - | - | - |
| 1777445360 | 21.67° C | 61% | 1011.2 hPa | - | - | - | - |
| 1777444464 | 18.89° C | 68% | 1010.9 hPa | - | - | - | - |
| 1777443571 | 17.22° C | 74% | 1011.1 hPa | - | - | - | - |
| 1777442660 | 16.67° C | 76% | 1011.1 hPa | - | - | - | - |
| 1777441760 | 15° C | 80% | 1011 hPa | - | - | - | - |
| 1777440859 | 14.44° C | 85% | 1010.8 hPa | - | - | - | - |
| 1777439958 | 13.89° C | 87% | 1010.6 hPa | - | - | - | - |
| 1777439058 | 13.89° C | 84% | 1010.3 hPa | - | - | - | - |
| 1777438158 | 13.89° C | 86% | 1010.3 hPa | - | - | - | - |
| 1777437257 | 13.89° C | 86% | 1010.4 hPa | - | - | - | - |
| 1777436357 | 13.89° C | 85% | 1010.5 hPa | - | - | - | - |
| 1777435457 | 14.44° C | 85% | 1010.5 hPa | - | - | - | - |
| 1777434557 | 14.44° C | 85% | 1010.8 hPa | - | - | - | - |
* Rain since midnight (hover to see other rain measurements)
** Current wind speed in m/s (hover to see current wind gust speed)